Yahata_maru — JD3008 — position and weather

sailwx.info

Track history (hours):
 
Tides and Currents Weather Stations Pressure Air Temp Water Temp Dewpoint Dewpoint Depression Visibility Wind Speed Wind Dir Waves Ship Positions

Yahata_maru

Last reported at 2017-Oct-04 16:20 UTC. Time now 2017-Oct-20 03:17 UTC.
Position N 34°56' E 139°44'.
Warning: this ship's position is 15 days out of date.

Length 74 m; draft 4.5 m.

Type: Cargo ship. MMSI: 431001106.

Date/timePositionNaut miles runAvg speedWind from/ knotsBaromVisibWave heightAir tempDewpointWater temp
2017-Oct-04 16:20N 34°56' E 139°44'411.5
2017-Oct-04 16:01N 34°60' E 139°43'713.1
2017-Oct-04 15:30N 35°06' E 139°45'713.6
2017-Oct-04 15:00N 35°13' E 139°46'612.3
2017-Oct-04 14:31N 35°19' E 139°43'611.6
2017-Oct-04 13:59N 35°25' E 139°44'510.6
2017-Oct-04 13:30N 35°23' E 139°50'3 0.2
2017-Oct-03 22:17N 35°22' E 139°53'1 1.3
2017-Oct-03 21:50N 35°22' E 139°54'0 0.1
2017-Oct-03 21:26N 35°22' E 139°54'0 0.0
2017-Oct-03 21:00N 35°22' E 139°54'0 0.0
2017-Oct-03 13:28N 35°22' E 139°54'0 0.0
2017-Oct-03 11:21N 35°22' E 139°54'1 1.8
2017-Oct-03 11:01N 35°22' E 139°53'510.9
2017-Oct-03 10:31N 35°27' E 139°50'9 0.3
2017-Oct-02 05:58N 35°36' E 139°51'3 0.3
2017-Oct-01 22:36N 35°37' E 139°48'2 7.1
2017-Oct-01 22:21N 35°36' E 139°50'3 0.6
2017-Oct-01 18:25N 35°35' E 139°53'511.8
2017-Oct-01 18:00N 35°30' E 139°52'612.2
2017-Oct-01 17:30N 35°25' E 139°48'612.3
2017-Oct-01 17:00N 35°20' E 139°44'611.4
2017-Oct-01 16:29N 35°14' E 139°47'612.2
2017-Oct-01 16:00N 35°08' E 139°47'612.5
2017-Oct-01 15:30N 35°03' E 139°43'  
2017-Sep-24 19:43N 34°08' E 134°44'  
Track history (hours):
 
Tides and Currents Weather Stations Pressure Air Temp Water Temp Dewpoint Dewpoint Depression Visibility Wind Speed Wind Dir Waves Ship Positions

Yahata_maru

Last reported at 2017-Oct-04 16:20 UTC. Time now 2017-Oct-20 03:17 UTC.
Position N 34°56' E 139°44'.
Warning: this ship's position is 15 days out of date.

Length 74 m; draft 4.5 m.

Type: Cargo ship. MMSI: 431001106.

Date/timePositionNaut miles runAvg speedWind from/ knotsBaromVisibWave heightAir tempDewpointWater temp
2017-Oct-04 16:20N 34°56' E 139°44'411.5
2017-Oct-04 16:01N 34°60' E 139°43'713.1
2017-Oct-04 15:30N 35°06' E 139°45'713.6
2017-Oct-04 15:00N 35°13' E 139°46'612.3
2017-Oct-04 14:31N 35°19' E 139°43'611.6
2017-Oct-04 13:59N 35°25' E 139°44'510.6
2017-Oct-04 13:30N 35°23' E 139°50'3 0.2
2017-Oct-03 22:17N 35°22' E 139°53'1 1.3
2017-Oct-03 21:50N 35°22' E 139°54'0 0.1
2017-Oct-03 21:26N 35°22' E 139°54'0 0.0
2017-Oct-03 21:00N 35°22' E 139°54'0 0.0
2017-Oct-03 13:28N 35°22' E 139°54'0 0.0
2017-Oct-03 11:21N 35°22' E 139°54'1 1.8
2017-Oct-03 11:01N 35°22' E 139°53'510.9
2017-Oct-03 10:31N 35°27' E 139°50'9 0.3
2017-Oct-02 05:58N 35°36' E 139°51'3 0.3
2017-Oct-01 22:36N 35°37' E 139°48'2 7.1
2017-Oct-01 22:21N 35°36' E 139°50'3 0.6
2017-Oct-01 18:25N 35°35' E 139°53'511.8
2017-Oct-01 18:00N 35°30' E 139°52'612.2
2017-Oct-01 17:30N 35°25' E 139°48'612.3
2017-Oct-01 17:00N 35°20' E 139°44'611.4
2017-Oct-01 16:29N 35°14' E 139°47'612.2
2017-Oct-01 16:00N 35°08' E 139°47'612.5
2017-Oct-01 15:30N 35°03' E 139°43'  
2017-Sep-24 19:43N 34°08' E 134°44'  

Dump ship's entire track history